createdAt,value
2018-12-15T00:00:23.015Z,2.81
2018-12-15T00:01:32.832Z,2.8
2018-12-15T00:02:42.896Z,2.9
2018-12-15T00:03:52.694Z,2.85
2018-12-15T00:05:03.528Z,2.93
2018-12-15T00:06:13.712Z,2.91
2018-12-15T00:07:24.161Z,2.88
2018-12-15T00:08:34.263Z,2.91
2018-12-15T00:09:44.340Z,2.9
2018-12-15T00:10:54.416Z,2.81
2018-12-15T00:12:04.746Z,2.77
2018-12-15T00:13:14.833Z,2.84
2018-12-15T00:14:24.945Z,2.9
2018-12-15T00:15:35.059Z,2.87
2018-12-15T00:16:45.111Z,2.88
2018-12-15T00:17:54.905Z,2.8
2018-12-15T00:19:04.978Z,2.8
2018-12-15T00:20:15.020Z,2.81
2018-12-15T00:21:25.079Z,2.77
2018-12-15T00:22:35.129Z,2.77
2018-12-15T00:23:45.168Z,2.81
2018-12-15T00:24:54.985Z,2.81
2018-12-15T00:26:06.896Z,2.78
2018-12-15T00:27:17.291Z,2.78
2018-12-15T00:28:27.164Z,2.76
2018-12-15T00:29:37.243Z,2.77
2018-12-15T00:30:47.299Z,2.72
2018-12-15T00:31:57.376Z,2.72
2018-12-15T00:33:07.445Z,2.69
2018-12-15T00:34:17.574Z,2.72
2018-12-15T00:35:27.375Z,2.73
2018-12-15T00:36:37.218Z,2.72
2018-12-15T00:37:47.268Z,2.7
2018-12-15T00:38:57.321Z,2.72
2018-12-15T00:40:08.670Z,2.76
2018-12-15T00:41:18.881Z,2.73
2018-12-15T00:42:28.934Z,2.76
2018-12-15T00:43:38.997Z,2.72
2018-12-15T00:44:49.058Z,2.72
2018-12-15T00:45:58.870Z,2.78
2018-12-15T00:47:15.847Z,2.62
2018-12-15T00:48:25.643Z,2.7
2018-12-15T00:49:35.976Z,2.63
2018-12-15T00:50:46.030Z,2.65
2018-12-15T00:51:56.092Z,2.62
2018-12-15T00:53:05.943Z,2.6
2018-12-15T00:54:15.760Z,2.62
2018-12-15T00:55:25.312Z,2.73
2018-12-15T00:56:35.374Z,2.63
2018-12-15T00:57:45.425Z,2.63
2018-12-15T00:58:55.475Z,2.7
2018-12-15T01:00:07.625Z,2.6
2018-12-15T01:01:19.788Z,2.65
2018-12-15T01:02:31.116Z,2.6
2018-12-15T01:03:41.181Z,2.7
2018-12-15T01:04:51.026Z,2.72
2018-12-15T01:06:01.424Z,2.77
2018-12-15T01:07:11.483Z,2.73
2018-12-15T01:08:21.559Z,2.72
2018-12-15T01:09:31.606Z,2.66
2018-12-15T01:10:41.666Z,2.73
2018-12-15T01:11:51.502Z,2.76
2018-12-15T01:13:01.063Z,2.66
2018-12-15T01:14:11.109Z,2.65
2018-12-15T01:15:22.124Z,2.72
2018-12-15T01:16:35.939Z,2.6
2018-12-15T01:17:46.714Z,2.65
2018-12-15T01:18:56.773Z,2.7
2018-12-15T01:20:06.310Z,2.67
2018-12-15T01:21:16.365Z,2.58
2018-12-15T01:22:26.415Z,2.76
2018-12-15T01:23:36.532Z,2.77
2018-12-15T01:24:46.581Z,2.6
2018-12-15T01:25:56.646Z,2.69
2018-12-15T01:27:06.551Z,2.6
2018-12-15T01:28:17.291Z,2.62
2018-12-15T01:29:42.907Z,2.63
2018-12-15T01:30:53.274Z,2.72
2018-12-15T01:32:03.320Z,2.72
2018-12-15T01:33:13.415Z,2.7
2018-12-15T01:34:24.733Z,2.6
2018-12-15T01:35:37.352Z,2.6
2018-12-15T01:36:48.516Z,2.63
2018-12-15T01:37:59.007Z,2.62
2018-12-15T01:39:10.938Z,2.62
2018-12-15T01:40:20.752Z,2.62
2018-12-15T01:41:30.860Z,2.62
2018-12-15T01:42:41.125Z,2.58
2018-12-15T01:43:50.931Z,2.69
2018-12-15T01:45:00.748Z,2.6
2018-12-15T01:46:10.923Z,2.62
2018-12-15T01:47:26.808Z,2.59
2018-12-15T01:48:36.592Z,2.6
2018-12-15T01:49:46.392Z,2.6
2018-12-15T01:50:56.458Z,2.63
2018-12-15T01:52:06.509Z,2.73
2018-12-15T01:53:16.680Z,2.65
2018-12-15T01:54:26.717Z,2.69
2018-12-15T01:55:36.775Z,2.76
2018-12-15T01:56:46.829Z,2.73
2018-12-15T01:57:56.876Z,2.67
2018-12-15T01:59:08.514Z,2.7
2018-12-15T02:00:18.614Z,2.63
2018-12-15T02:01:28.404Z,2.62
2018-12-15T02:02:38.447Z,2.6
2018-12-15T02:03:48.511Z,2.66
2018-12-15T02:04:58.569Z,2.72
2018-12-15T02:06:08.431Z,2.63
2018-12-15T02:07:18.291Z,2.63
2018-12-15T02:08:28.586Z,2.76
2018-12-15T02:09:38.639Z,2.67
2018-12-15T02:10:48.710Z,2.76
2018-12-15T02:11:58.529Z,2.72
2018-12-15T02:13:08.568Z,2.7
2018-12-15T02:14:18.731Z,2.69
2018-12-15T02:15:28.789Z,2.69
2018-12-15T02:16:38.904Z,2.62
2018-12-15T02:17:48.962Z,2.63
2018-12-15T02:18:59.032Z,2.69
2018-12-15T02:20:09.057Z,2.62
2018-12-15T02:21:19.148Z,2.55
2018-12-15T02:22:29.008Z,2.62
2018-12-15T02:23:39.080Z,2.62
2018-12-15T02:24:49.206Z,2.6
2018-12-15T02:25:59.003Z,2.59
2018-12-15T02:27:09.059Z,2.59
2018-12-15T02:28:19.155Z,2.59
2018-12-15T02:29:29.229Z,2.62
2018-12-15T02:30:39.425Z,2.65
2018-12-15T02:31:49.504Z,2.62
2018-12-15T02:32:59.054Z,2.54
2018-12-15T02:34:10.018Z,2.66
2018-12-15T02:35:20.121Z,2.59
2018-12-15T02:36:29.950Z,2.62
2018-12-15T02:37:39.847Z,2.65
2018-12-15T02:38:50.375Z,2.69
2018-12-15T02:40:00.201Z,2.63
2018-12-15T02:41:10.258Z,2.6
2018-12-15T02:42:20.398Z,2.66
2018-12-15T02:43:30.458Z,2.59
2018-12-15T02:44:40.526Z,2.54
2018-12-15T02:45:50.590Z,2.49
2018-12-15T02:47:00.647Z,2.54
2018-12-15T02:48:10.742Z,2.48
2018-12-15T02:49:20.351Z,2.48
2018-12-15T02:50:30.407Z,2.47
2018-12-15T02:51:39.944Z,2.51
2018-12-15T02:52:49.744Z,2.52
2018-12-15T02:53:59.806Z,2.49
2018-12-15T02:55:09.884Z,2.48
2018-12-15T02:56:19.937Z,2.49
2018-12-15T02:57:30.074Z,2.49
2018-12-15T02:58:39.881Z,2.51
2018-12-15T02:59:49.958Z,2.55
2018-12-15T03:01:00.076Z,2.41
2018-12-15T03:02:10.122Z,2.4
2018-12-15T03:03:19.990Z,2.4
2018-12-15T03:34:58.407Z,0.5
2018-12-15T03:36:08.441Z,0.47
2018-12-15T03:37:18.506Z,0.52
2018-12-15T03:38:28.548Z,0.47
2018-12-15T03:39:38.921Z,0.48
2018-12-15T03:40:49.207Z,0.61
2018-12-15T03:41:59.346Z,0.69
2018-12-15T03:43:09.126Z,0.82
2018-12-15T03:44:19.210Z,0.86
2018-12-15T03:45:29.012Z,1
2018-12-15T03:46:39.070Z,1.12
2018-12-15T03:47:55.918Z,1.22
2018-12-15T03:49:08.538Z,1.33
2018-12-15T03:50:18.626Z,1.38
2018-12-15T03:51:28.176Z,1.61
2018-12-15T03:52:38.219Z,1.65
2018-12-15T03:53:48.901Z,1.71
2018-12-15T03:54:59.408Z,1.86
2018-12-15T03:56:09.226Z,1.78
2018-12-15T03:57:19.298Z,1.86
2018-12-15T03:58:29.632Z,1.93
2018-12-15T03:59:39.700Z,1.98
2018-12-15T04:00:49.495Z,2.02
2018-12-15T04:01:59.573Z,2.09
2018-12-15T04:03:09.383Z,2.11
2018-12-15T04:04:19.506Z,2.22
2018-12-15T04:05:29.331Z,2.09
2018-12-15T04:06:39.154Z,2.22
2018-12-15T04:07:48.973Z,2.16
2018-12-15T04:08:59.019Z,2.13
2018-12-15T04:10:11.037Z,2.18
2018-12-15T04:11:21.098Z,2.23
2018-12-15T04:12:31.163Z,2.24
2018-12-15T04:13:41.235Z,2.26
2018-12-15T04:14:51.296Z,2.33
2018-12-15T04:16:01.414Z,2.29
2018-12-15T04:17:11.486Z,2.27
2018-12-15T04:18:21.554Z,2.38
2018-12-15T04:19:31.613Z,2.34
2018-12-15T04:20:41.769Z,2.33
2018-12-15T04:21:51.911Z,2.41
2018-12-15T04:23:01.994Z,2.33
2018-12-15T04:24:12.048Z,2.36
2018-12-15T04:25:22.152Z,2.33
2018-12-15T04:26:31.939Z,2.45
2018-12-15T04:27:42.259Z,2.47
2018-12-15T04:28:52.316Z,2.44
2018-12-15T04:30:02.446Z,2.41
2018-12-15T04:31:12.508Z,2.36
2018-12-15T04:32:23.569Z,2.4
2018-12-15T04:33:33.769Z,2.42
2018-12-15T04:34:43.339Z,2.31
2018-12-15T04:35:53.147Z,2.41
2018-12-15T04:37:03.975Z,2.42
2018-12-15T04:38:14.015Z,2.4
2018-12-15T04:39:23.667Z,2.42
2018-12-15T04:40:33.487Z,2.41
2018-12-15T04:41:43.653Z,2.42
2018-12-15T04:42:53.526Z,2.4
2018-12-15T04:44:03.581Z,2.42
2018-12-15T04:45:14.008Z,2.47
2018-12-15T04:46:24.119Z,2.4
2018-12-15T04:47:34.213Z,2.45
2018-12-15T04:48:44.306Z,2.44
2018-12-15T04:49:54.103Z,2.41
2018-12-15T04:51:04.220Z,2.49
2018-12-15T04:52:14.267Z,2.41
2018-12-15T04:53:24.095Z,2.45
2018-12-15T04:54:34.285Z,2.38
2018-12-15T04:55:44.263Z,2.45
2018-12-15T04:56:54.047Z,2.42
2018-12-15T04:58:03.926Z,2.36
2018-12-15T04:59:14.046Z,2.38
2018-12-15T05:00:23.863Z,2.34
2018-12-15T05:01:33.954Z,2.31
2018-12-15T05:02:48.807Z,2.47
2018-12-15T05:03:58.863Z,2.33
2018-12-15T05:05:08.678Z,2.44
2018-12-15T05:06:18.734Z,2.47
2018-12-15T05:07:28.799Z,2.44
2018-12-15T05:08:38.901Z,2.41
2018-12-15T05:09:48.937Z,2.42
2018-12-15T05:10:58.975Z,2.3
2018-12-15T05:12:08.789Z,2.36
2018-12-15T05:13:18.854Z,2.33
2018-12-15T05:14:28.986Z,2.31
2018-12-15T05:15:38.800Z,2.3
2018-12-15T05:16:48.846Z,2.36
2018-12-15T05:17:58.908Z,2.31
2018-12-15T05:19:08.737Z,2.31
2018-12-15T05:20:18.899Z,2.29
2018-12-15T05:21:28.956Z,2.31
2018-12-15T05:22:39.017Z,2.3
2018-12-15T05:23:49.080Z,2.29
2018-12-15T05:24:59.129Z,2.3
2018-12-15T05:26:09.229Z,2.33
2018-12-15T05:27:19.028Z,2.34
2018-12-15T05:28:29.115Z,2.4
2018-12-15T05:29:39.514Z,2.45
2018-12-15T05:30:49.560Z,2.4
2018-12-15T05:31:59.096Z,2.34
2018-12-15T05:33:10.188Z,2.27
2018-12-15T05:34:20.372Z,2.34
2018-12-15T05:35:30.485Z,2.31
2018-12-15T05:36:40.282Z,2.31
2018-12-15T05:37:50.296Z,2.31
2018-12-15T05:39:03.408Z,2.3
2018-12-15T05:40:13.474Z,2.34
2018-12-15T05:41:23.529Z,2.3
2018-12-15T05:42:33.600Z,2.31
2018-12-15T05:43:43.650Z,2.34
2018-12-15T05:44:53.695Z,2.29
2018-12-15T05:46:03.257Z,2.29
2018-12-15T05:47:13.305Z,2.3
2018-12-15T05:48:29.866Z,2.34
2018-12-15T05:49:39.976Z,2.33
2018-12-15T05:50:50.048Z,2.29
2018-12-15T05:52:00.110Z,2.31
2018-12-15T05:53:10.171Z,2.3
2018-12-15T05:54:20.273Z,2.3
2018-12-15T05:55:30.425Z,2.3
2018-12-15T05:56:40.479Z,2.44
2018-12-15T05:57:50.580Z,2.31
2018-12-15T05:59:00.645Z,2.3
2018-12-15T06:00:10.698Z,2.31
2018-12-15T06:01:20.757Z,2.31
2018-12-15T06:02:30.846Z,2.34
2018-12-15T06:03:40.896Z,2.33
2018-12-15T06:04:50.981Z,2.3
2018-12-15T06:06:00.777Z,2.33
2018-12-15T06:07:10.644Z,2.31
2018-12-15T06:08:20.724Z,2.31
2018-12-15T06:09:31.020Z,2.26
2018-12-15T06:10:41.117Z,2.31
2018-12-15T06:11:50.904Z,2.3
2018-12-15T06:13:00.717Z,2.31
2018-12-15T06:14:10.781Z,2.27
2018-12-15T06:15:20.584Z,2.34
2018-12-15T06:16:30.372Z,2.31
2018-12-15T06:17:40.435Z,2.34
2018-12-15T06:18:50.479Z,2.33
2018-12-15T06:20:00.551Z,2.3
2018-12-15T06:21:10.717Z,2.33
2018-12-15T06:22:20.765Z,2.34
2018-12-15T06:23:30.568Z,2.4
2018-12-15T06:24:41.234Z,2.34
2018-12-15T06:25:51.273Z,2.33
2018-12-15T06:27:01.401Z,2.26
2018-12-15T06:28:11.447Z,2.27
2018-12-15T06:29:21.262Z,2.3
2018-12-15T06:30:31.369Z,2.36
2018-12-15T06:31:41.175Z,2.44
2018-12-15T06:32:51.232Z,2.38
2018-12-15T06:34:01.304Z,2.42
2018-12-15T06:35:11.364Z,2.41
2018-12-15T06:36:21.514Z,2.41
2018-12-15T06:37:31.563Z,2.36
2018-12-15T06:38:41.620Z,2.47
2018-12-15T06:39:51.656Z,2.47
2018-12-15T06:41:01.447Z,2.45
2018-12-15T06:42:11.625Z,2.44
2018-12-15T06:43:21.693Z,2.42
2018-12-15T06:44:31.754Z,2.38
2018-12-15T06:45:41.835Z,2.3
2018-12-15T06:46:51.641Z,2.38
2018-12-15T06:48:02.990Z,2.41
2018-12-15T06:49:13.108Z,2.45
2018-12-15T06:50:22.909Z,2.41
2018-12-15T06:51:32.706Z,2.45
2018-12-15T06:52:42.775Z,2.41
2018-12-15T06:53:52.915Z,2.38
2018-12-15T06:55:03.665Z,2.45
2018-12-15T06:56:13.945Z,2.41
2018-12-15T06:57:24.014Z,2.49
2018-12-15T06:58:33.554Z,2.45
2018-12-15T06:59:43.608Z,2.47
2018-12-15T07:00:53.689Z,2.45
2018-12-15T07:02:03.730Z,2.47
2018-12-15T07:03:13.790Z,2.58
2018-12-15T07:04:23.902Z,2.54
2018-12-15T07:05:34.017Z,2.58
2018-12-15T07:06:44.541Z,2.6
2018-12-15T07:07:54.602Z,2.59
2018-12-15T07:09:04.393Z,2.67
2018-12-15T07:10:14.218Z,2.65
2018-12-15T07:11:24.066Z,2.6
2018-12-15T07:12:34.180Z,2.58
2018-12-15T07:13:44.236Z,2.55
2018-12-15T07:14:53.779Z,2.62
2018-12-15T07:16:03.837Z,2.54
2018-12-15T07:17:13.896Z,2.6
2018-12-15T07:18:24.054Z,2.72
2018-12-15T07:19:34.098Z,2.7
2018-12-15T07:20:44.172Z,2.77
2018-12-15T07:21:54.238Z,2.78
2018-12-15T07:23:04.319Z,2.78
2018-12-15T07:24:14.378Z,2.78
2018-12-15T07:25:24.714Z,2.77
2018-12-15T07:26:34.782Z,2.72
2018-12-15T07:27:44.860Z,2.77
2018-12-15T07:28:55.038Z,2.77
2018-12-15T07:30:08.383Z,2.8
2018-12-15T07:31:18.461Z,2.83
2018-12-15T07:32:28.515Z,2.9
2018-12-15T07:33:38.075Z,2.81
2018-12-15T07:34:48.171Z,2.76
2018-12-15T07:35:57.927Z,2.85
2018-12-15T07:37:08.809Z,2.8
2018-12-15T07:38:18.941Z,2.8
2018-12-15T07:39:28.991Z,2.88
2018-12-15T07:40:39.111Z,2.9
2018-12-15T07:41:49.417Z,2.95
2018-12-15T07:42:59.218Z,2.95
2018-12-15T07:44:09.276Z,3.01
2018-12-15T07:45:19.545Z,2.98
2018-12-15T07:46:29.645Z,2.98
2018-12-15T07:47:40.158Z,3.01
2018-12-15T07:48:56.172Z,3.09
2018-12-15T07:50:06.270Z,3.05
2018-12-15T07:51:16.365Z,2.96
2018-12-15T07:52:26.466Z,3.05
2018-12-15T07:53:36.302Z,3.11
2018-12-15T07:54:46.362Z,3.06
2018-12-15T07:55:56.409Z,3.16
2018-12-15T07:57:06.519Z,3.11
2018-12-15T07:58:16.590Z,3.19
2018-12-15T07:59:26.662Z,3.24
2018-12-15T08:00:37.159Z,3.34
2018-12-15T08:01:47.209Z,3.35
2018-12-15T08:02:56.761Z,3.3
2018-12-15T08:04:06.959Z,3.29
2018-12-15T08:05:17.021Z,3.29
2018-12-15T08:06:27.105Z,3.39
2018-12-15T08:07:37.170Z,3.34
2018-12-15T08:08:47.226Z,3.53
2018-12-15T08:09:57.355Z,3.32
2018-12-15T08:11:08.169Z,3.48
2018-12-15T08:12:17.993Z,3.57
2018-12-15T08:13:27.851Z,3.51
2018-12-15T08:14:37.912Z,3.54
2018-12-15T08:15:48.499Z,3.53
2018-12-15T08:16:58.577Z,3.54
2018-12-15T08:18:08.618Z,3.63
2018-12-15T08:19:18.482Z,3.58
2018-12-15T08:20:28.336Z,3.67
2018-12-15T08:21:38.140Z,3.61
2018-12-15T08:22:48.188Z,3.71
2018-12-15T08:23:57.736Z,3.76
2018-12-15T08:25:07.556Z,3.75
2018-12-15T08:26:17.618Z,3.72
2018-12-15T08:27:28.135Z,3.84
2018-12-15T08:28:38.209Z,3.79
2018-12-15T08:29:48.271Z,3.86
2018-12-15T08:30:58.352Z,3.89
2018-12-15T08:32:08.427Z,3.94
2018-12-15T08:33:18.563Z,3.94
2018-12-15T08:34:28.370Z,4.08
2018-12-15T08:35:38.442Z,4.15
2018-12-15T08:36:47.992Z,4.12
2018-12-15T08:37:58.280Z,4.18
2018-12-15T08:39:10.354Z,4.21
2018-12-15T08:40:20.414Z,4.18
2018-12-15T08:41:30.237Z,4.3
2018-12-15T08:42:40.054Z,4.21
2018-12-15T08:43:49.882Z,4.18
2018-12-15T08:44:59.946Z,4.17
2018-12-15T08:46:10.291Z,4.22
2018-12-15T08:47:20.133Z,4.33
2018-12-15T08:48:30.200Z,4.42
2018-12-15T08:49:40.265Z,4.38
2018-12-15T08:50:50.280Z,4.42
2018-12-15T08:52:00.926Z,4.42
2018-12-15T08:53:10.850Z,4.54
2018-12-15T08:54:20.392Z,4.48
2018-12-15T08:55:30.455Z,4.5
2018-12-15T08:56:40.594Z,4.53
2018-12-15T08:57:50.675Z,4.65
2018-12-15T08:59:00.777Z,4.65
2018-12-15T09:00:10.842Z,4.57
2018-12-15T09:01:20.662Z,4.71
2018-12-15T09:02:30.806Z,4.79
2018-12-15T09:03:40.862Z,4.83
2018-12-15T09:04:50.931Z,4.91
2018-12-15T09:06:01.016Z,4.97
2018-12-15T09:07:11.068Z,4.97
2018-12-15T09:08:22.298Z,5.05
2018-12-15T09:09:32.366Z,5.03
2018-12-15T09:10:42.446Z,5.09
2018-12-15T09:11:52.261Z,5.12
2018-12-15T09:13:02.589Z,5.1
2018-12-15T09:14:12.653Z,5.23
2018-12-15T09:15:22.725Z,5.26
2018-12-15T09:16:32.811Z,5.26
2018-12-15T09:17:42.940Z,5.31
2018-12-15T09:18:52.987Z,5.26
2018-12-15T09:20:03.040Z,5.36
2018-12-15T09:21:12.880Z,5.28
2018-12-15T09:22:22.790Z,5.37
2018-12-15T09:23:32.855Z,5.27
2018-12-15T09:24:42.707Z,5.26
2018-12-15T09:25:52.520Z,5.28
2018-12-15T09:27:03.693Z,5.27
2018-12-15T09:28:13.837Z,5.26
2018-12-15T09:29:23.896Z,5.33
2018-12-15T09:30:34.014Z,5.2
2018-12-15T09:31:44.095Z,5.26
2018-12-15T09:32:54.168Z,5.28
2018-12-15T09:34:04.258Z,5.13
2018-12-15T09:35:14.317Z,5.23
2018-12-15T09:36:24.381Z,5.24
2018-12-15T09:37:34.447Z,5.18
2018-12-15T09:38:44.504Z,5.21
2018-12-15T09:39:54.593Z,5.03
2018-12-15T09:41:04.700Z,5.03
2018-12-15T09:42:14.798Z,4.92
2018-12-15T09:43:24.643Z,4.94
2018-12-15T09:44:34.714Z,5
2018-12-15T09:45:44.551Z,4.85
2018-12-15T09:46:54.635Z,4.83
2018-12-15T09:48:04.938Z,4.85
2018-12-15T09:49:20.326Z,4.79
2018-12-15T09:50:30.408Z,4.84
2018-12-15T09:51:40.786Z,4.92
2018-12-15T09:52:50.856Z,4.87
2018-12-15T09:54:02.265Z,4.94
2018-12-15T09:55:12.401Z,4.88
2018-12-15T09:56:22.188Z,4.98
2018-12-15T09:57:32.299Z,5.03
2018-12-15T09:58:42.451Z,5
2018-12-15T09:59:52.532Z,4.95
2018-12-15T10:01:02.771Z,5.03
2018-12-15T10:02:12.835Z,5.1
2018-12-15T10:03:22.993Z,5.06
2018-12-15T10:04:33.067Z,5.03
2018-12-15T10:05:43.160Z,5.09
2018-12-15T10:06:53.574Z,5.1
2018-12-15T10:08:05.836Z,5.13
2018-12-15T10:09:15.779Z,5.28
2018-12-15T10:10:25.841Z,5.21
2018-12-15T10:11:35.935Z,5.31
2018-12-15T10:12:46.008Z,5.27
2018-12-15T10:13:56.082Z,5.28
2018-12-15T10:15:07.763Z,5.41
2018-12-15T10:16:17.577Z,5.48
2018-12-15T10:17:27.663Z,5.42
2018-12-15T10:18:37.717Z,5.52
2018-12-15T10:19:47.798Z,5.7
2018-12-15T10:20:57.973Z,5.67
2018-12-15T10:22:07.779Z,5.81
2018-12-15T10:23:17.574Z,5.7
2018-12-15T10:24:27.700Z,5.73
2018-12-15T10:25:37.759Z,5.77
2018-12-15T10:26:47.326Z,5.75
2018-12-15T10:27:57.419Z,5.8
2018-12-15T10:29:07.504Z,5.82
2018-12-15T10:30:17.553Z,5.88
2018-12-15T10:31:27.623Z,5.81
2018-12-15T10:32:37.840Z,5.81
2018-12-15T10:33:47.916Z,5.88
2018-12-15T10:34:57.989Z,5.91
2018-12-15T10:36:08.073Z,5.92
2018-12-15T10:37:18.160Z,5.98
2018-12-15T10:38:28.319Z,5.98
2018-12-15T10:39:38.453Z,5.92
2018-12-15T10:40:48.254Z,5.92
2018-12-15T10:41:58.130Z,5.88
2018-12-15T10:43:08.207Z,5.92
2018-12-15T10:44:18.390Z,6.05
2018-12-15T10:45:28.439Z,6.06
2018-12-15T10:46:38.514Z,6.03
2018-12-15T10:47:48.749Z,6.02
2018-12-15T10:48:58.850Z,6.02
2018-12-15T10:50:08.938Z,6
2018-12-15T10:51:18.994Z,6.05
2018-12-15T10:52:28.907Z,6.26
2018-12-15T10:53:38.977Z,6.14
2018-12-15T10:54:49.038Z,6.13
2018-12-15T10:55:59.184Z,6
2018-12-15T10:57:09.246Z,5.99
2018-12-15T10:58:19.608Z,6.05
2018-12-15T10:59:29.709Z,5.88
2018-12-15T11:00:39.783Z,5.91
2018-12-15T11:01:49.865Z,5.92
2018-12-15T11:02:59.951Z,5.98
2018-12-15T11:04:10.048Z,5.88
2018-12-15T11:05:20.129Z,5.91
2018-12-15T11:06:30.218Z,5.84
2018-12-15T11:07:40.288Z,5.82
2018-12-15T11:08:50.361Z,5.82
2018-12-15T11:10:03.157Z,5.72
2018-12-15T11:11:12.959Z,5.85
2018-12-15T11:12:23.023Z,5.81
2018-12-15T11:13:33.092Z,5.67
2018-12-15T11:14:43.167Z,5.62
2018-12-15T11:15:53.263Z,5.63
2018-12-15T11:17:05.620Z,5.49
2018-12-15T11:18:15.795Z,5.42
2018-12-15T11:19:26.162Z,5.36
2018-12-15T11:20:42.581Z,5.39
2018-12-15T11:21:52.636Z,5.31
2018-12-15T11:23:02.438Z,5.2
2018-12-15T11:24:12.286Z,5.12
2018-12-15T11:25:22.402Z,5.1
2018-12-15T11:26:32.455Z,5.05
2018-12-15T11:27:42.516Z,4.84
2018-12-15T11:28:53.832Z,4.79
2018-12-15T11:30:03.914Z,4.72
2018-12-15T11:31:14.189Z,4.69
2018-12-15T11:32:24.263Z,4.79
2018-12-15T11:33:34.068Z,4.79
2018-12-15T11:34:44.193Z,4.76
2018-12-15T11:35:54.256Z,4.72
2018-12-15T11:37:04.302Z,4.66
2018-12-15T11:38:14.100Z,4.6
2018-12-15T11:39:24.165Z,4.58
2018-12-15T11:40:34.230Z,4.56
2018-12-15T11:41:44.317Z,4.48
2018-12-15T11:42:54.162Z,4.47
2018-12-15T11:44:03.724Z,4.53
2018-12-15T11:45:13.780Z,4.46
2018-12-15T11:46:23.903Z,4.47
2018-12-15T11:47:33.988Z,4.5
2018-12-15T11:48:44.054Z,4.47
2018-12-15T11:49:54.179Z,4.44
2018-12-15T11:51:04.292Z,4.51
2018-12-15T11:52:14.476Z,4.6
2018-12-15T11:53:24.560Z,4.68
2018-12-15T11:54:34.679Z,4.72
2018-12-15T11:55:45.048Z,4.87
2018-12-15T11:56:54.860Z,4.88
2018-12-15T11:58:08.321Z,4.98
2018-12-15T11:59:18.422Z,5
2018-12-15T12:00:28.249Z,5
2018-12-15T12:01:38.328Z,5.06
2018-12-15T12:02:48.416Z,5.15
2018-12-15T12:03:58.458Z,5.24
2018-12-15T12:05:10.134Z,5.42
2018-12-15T12:06:20.224Z,5.37
2018-12-15T12:07:30.545Z,5.34
2018-12-15T12:08:40.597Z,5.31
2018-12-15T12:09:50.955Z,5.21
2018-12-15T12:11:01.213Z,5.13
2018-12-15T12:12:11.529Z,5.06
2018-12-15T12:13:21.078Z,5.09
2018-12-15T12:14:31.178Z,5.03
2018-12-15T12:15:40.986Z,5.06
2018-12-15T12:16:51.135Z,4.94
2018-12-15T12:18:02.342Z,4.98
2018-12-15T12:19:12.420Z,5
2018-12-15T12:20:22.687Z,5.02
2018-12-15T12:21:32.555Z,4.88
2018-12-15T12:22:42.370Z,4.98
2018-12-15T12:23:52.441Z,5.09
2018-12-15T12:25:02.505Z,5.03
2018-12-15T12:26:12.593Z,4.98
2018-12-15T12:27:22.414Z,5.03
2018-12-15T12:28:32.513Z,4.97
2018-12-15T12:29:42.582Z,4.92
2018-12-15T12:30:52.417Z,4.87
2018-12-15T12:32:02.465Z,4.83
2018-12-15T12:33:12.413Z,4.76
2018-12-15T12:34:22.500Z,4.83
2018-12-15T12:35:32.587Z,4.76
2018-12-15T12:36:42.643Z,4.76
2018-12-15T12:37:52.704Z,4.72
2018-12-15T12:39:06.039Z,4.68
2018-12-15T12:40:16.086Z,4.65
2018-12-15T12:41:26.155Z,4.57
2018-12-15T12:42:36.228Z,4.57
2018-12-15T12:43:46.317Z,4.69
2018-12-15T12:44:56.133Z,4.69
2018-12-15T12:46:06.211Z,4.72
2018-12-15T12:47:16.301Z,4.83
2018-12-15T12:48:26.414Z,4.78
2018-12-15T12:49:36.477Z,4.87
2018-12-15T12:50:46.340Z,5.02
2018-12-15T12:51:56.424Z,4.97
2018-12-15T12:53:06.574Z,4.95
2018-12-15T12:54:16.655Z,4.88
2018-12-15T12:55:26.737Z,5.05
2018-12-15T12:56:37.042Z,4.97
2018-12-15T12:57:47.104Z,5.2
2018-12-15T12:58:57.159Z,5.08
2018-12-15T13:00:08.939Z,5.1
2018-12-15T13:01:19.009Z,5.18
2018-12-15T13:02:29.343Z,5.12
2018-12-15T13:03:39.464Z,5.03
2018-12-15T13:04:49.270Z,5
2018-12-15T13:05:59.341Z,4.94
2018-12-15T13:07:09.427Z,4.88
2018-12-15T13:08:19.589Z,4.83
2018-12-15T13:09:29.640Z,4.79
2018-12-15T13:10:39.711Z,4.72
2018-12-15T13:11:49.537Z,4.66
2018-12-15T13:12:59.355Z,4.6
2018-12-15T13:14:09.173Z,4.53
2018-12-15T13:15:19.270Z,4.47
2018-12-15T13:16:29.647Z,4.48
2018-12-15T13:17:39.474Z,4.51
2018-12-15T13:18:49.543Z,4.38
2018-12-15T13:20:06.030Z,4.29
2018-12-15T13:21:15.835Z,4.33
2018-12-15T13:22:25.900Z,4.24
2018-12-15T13:23:35.779Z,4.26
2018-12-15T13:24:45.860Z,4.15
2018-12-15T13:25:55.982Z,4.21
2018-12-15T13:27:06.070Z,4.2
2018-12-15T13:28:15.872Z,4.12
2018-12-15T13:29:26.088Z,4.21
2018-12-15T13:30:37.281Z,4.17
2018-12-15T13:31:47.379Z,4.14
2018-12-15T13:32:57.443Z,4.15
2018-12-15T13:34:07.862Z,4.11
2018-12-15T13:35:17.967Z,3.97
2018-12-15T13:36:28.024Z,3.94
2018-12-15T13:37:37.826Z,3.93
2018-12-15T13:38:47.884Z,3.85
2018-12-15T13:39:57.699Z,3.9
2018-12-15T13:41:08.157Z,3.76
2018-12-15T13:42:18.233Z,3.74
2018-12-15T13:43:28.303Z,3.61
2018-12-15T13:44:38.388Z,3.67
2018-12-15T13:45:48.214Z,3.63
2018-12-15T13:46:58.279Z,3.67
2018-12-15T13:48:09.042Z,3.53
2018-12-15T13:49:19.103Z,3.48
2018-12-15T13:50:29.192Z,3.53
2018-12-15T13:51:38.990Z,3.42
2018-12-15T13:52:49.064Z,3.39
2018-12-15T13:53:59.142Z,3.29
2018-12-15T13:55:09.282Z,3.24
2018-12-15T13:56:19.348Z,3.34
2018-12-15T13:57:29.174Z,3.37
2018-12-15T13:58:38.718Z,3.37
2018-12-15T13:59:48.787Z,3.35
2018-12-15T14:00:58.931Z,3.34
2018-12-15T14:02:09.020Z,3.39
2018-12-15T14:03:19.089Z,3.35
2018-12-15T14:04:29.183Z,3.35
2018-12-15T14:05:39.258Z,3.34
2018-12-15T14:06:49.175Z,3.3
2018-12-15T14:07:59.371Z,3.24
2018-12-15T14:09:09.509Z,3.23
2018-12-15T14:10:19.570Z,3.24
2018-12-15T14:11:29.379Z,3.3
2018-12-15T14:12:39.493Z,3.24
2018-12-15T14:13:50.428Z,3.14
2018-12-15T14:15:00.516Z,3.17
2018-12-15T14:16:10.596Z,3.19
2018-12-15T14:17:20.683Z,3.11
2018-12-15T14:18:30.826Z,3.09
2018-12-15T14:19:41.092Z,3.11
2018-12-15T14:20:51.174Z,3.11
2018-12-15T14:22:01.248Z,3.09
2018-12-15T14:23:11.173Z,3.09
2018-12-15T14:24:21.246Z,3.03
2018-12-15T14:25:31.443Z,3.09
2018-12-15T14:26:41.513Z,3.11
2018-12-15T14:27:51.358Z,3.14
2018-12-15T14:29:00.924Z,3.11
2018-12-15T14:30:11.010Z,3.11
2018-12-15T14:31:20.839Z,3.11
2018-12-15T14:32:30.689Z,3.14
2018-12-15T14:33:40.963Z,3.16
2018-12-15T14:34:51.051Z,3.16
2018-12-15T14:36:01.128Z,3.19
2018-12-15T14:37:11.194Z,3.19
2018-12-15T14:38:21.258Z,3.17
2018-12-15T14:39:31.318Z,3.13
2018-12-15T14:40:41.430Z,3.13
2018-12-15T14:41:51.746Z,3.17
2018-12-15T14:43:01.839Z,3.11
2018-12-15T14:44:11.916Z,3.08
2018-12-15T14:45:21.976Z,3.13
2018-12-15T14:46:31.826Z,3.14
2018-12-15T14:47:41.901Z,3.08
2018-12-15T14:48:51.966Z,3.13
2018-12-15T14:50:03.836Z,3.11
2018-12-15T14:51:13.794Z,3.09
2018-12-15T14:52:23.907Z,3.03
2018-12-15T14:53:33.975Z,2.99
2018-12-15T14:54:43.821Z,2.98
2018-12-15T14:55:54.179Z,3.01
2018-12-15T14:57:03.989Z,3.02
2018-12-15T14:58:13.959Z,2.95
2018-12-15T14:59:24.138Z,2.96
2018-12-15T15:00:34.230Z,2.95
2018-12-15T15:01:44.311Z,2.99
2018-12-15T15:02:54.640Z,2.99
2018-12-15T15:04:04.726Z,2.88
2018-12-15T15:05:14.847Z,2.9
2018-12-15T15:06:25.900Z,2.93
2018-12-15T15:07:36.126Z,2.87
2018-12-15T15:08:46.195Z,2.88
2018-12-15T15:09:56.343Z,2.9
2018-12-15T15:11:06.444Z,2.88
2018-12-15T15:12:16.537Z,2.91
2018-12-15T15:13:26.632Z,2.85
2018-12-15T15:14:42.369Z,2.85
2018-12-15T15:15:52.458Z,2.88
2018-12-15T15:17:02.594Z,2.78
2018-12-15T15:18:12.686Z,2.87
2018-12-15T15:19:22.777Z,2.84
2018-12-15T15:20:34.800Z,2.76
2018-12-15T15:21:44.874Z,2.98
2018-12-15T15:22:54.972Z,2.7
2018-12-15T15:24:04.786Z,2.84
2018-12-15T15:25:14.889Z,2.72
2018-12-15T15:26:24.753Z,2.76
2018-12-15T15:27:34.642Z,2.78
2018-12-15T15:28:44.712Z,2.83
2018-12-15T15:29:54.639Z,2.78
2018-12-15T15:31:04.463Z,2.87
2018-12-15T15:32:14.539Z,2.83
2018-12-15T15:33:24.612Z,2.73
2018-12-15T15:34:34.675Z,2.77
2018-12-15T15:35:44.764Z,2.77
2018-12-15T15:36:54.839Z,2.8
2018-12-15T15:38:04.917Z,2.85
2018-12-15T15:39:14.987Z,2.8
2018-12-15T15:40:25.086Z,2.91
2018-12-15T15:41:35.142Z,2.83
2018-12-15T15:42:44.969Z,2.85
2018-12-15T15:43:55.019Z,2.83
2018-12-15T15:45:05.189Z,2.87
2018-12-15T15:46:15.029Z,2.88
2018-12-15T15:47:25.122Z,2.91
2018-12-15T15:48:35.200Z,2.93
2018-12-15T15:49:45.297Z,2.96
2018-12-15T15:50:55.587Z,2.93
2018-12-15T15:52:05.668Z,2.96
2018-12-15T15:53:15.746Z,2.95
2018-12-15T15:54:25.553Z,2.93
2018-12-15T15:55:35.800Z,2.91
2018-12-15T15:56:45.945Z,2.93
2018-12-15T15:57:55.843Z,3.01
2018-12-15T15:59:08.089Z,2.98
2018-12-15T16:00:18.135Z,2.95
2018-12-15T16:01:28.202Z,3.01
2018-12-15T16:02:38.096Z,2.91
2018-12-15T16:03:48.239Z,2.96
2018-12-15T16:04:58.368Z,2.98
2018-12-15T16:06:09.915Z,3.03
2018-12-15T16:07:19.971Z,3.08
2018-12-15T16:08:29.935Z,2.99
2018-12-15T16:09:44.854Z,2.96